createdAt,value
2023-04-18T00:01:21.499Z,102120.09
2023-04-18T00:03:54.375Z,102132.16
2023-04-18T00:06:29.880Z,102125.72
2023-04-18T00:09:03.180Z,102131.97
2023-04-18T00:11:36.004Z,102121.63
2023-04-18T00:14:10.407Z,102125.97
2023-04-18T00:16:43.300Z,102113.94
2023-04-18T00:19:16.174Z,102125.78
2023-04-18T00:21:53.060Z,102112.41
2023-04-18T00:24:25.915Z,102102.47
2023-04-18T00:26:58.865Z,102129.38
2023-04-18T00:29:32.677Z,102134.06
2023-04-18T00:32:06.082Z,102135.41
2023-04-18T00:34:40.301Z,102136.13
2023-04-18T00:37:14.453Z,102136.13
2023-04-18T00:39:48.147Z,102133.00
2023-04-18T00:42:21.538Z,102124.09
2023-04-18T00:44:54.452Z,102110.13
2023-04-18T00:47:27.317Z,102113.06
2023-04-18T00:50:01.088Z,102128.16
2023-04-18T00:52:35.855Z,102130.19
2023-04-18T00:55:09.805Z,102118.94
2023-04-18T00:57:43.259Z,102129.72
2023-04-18T01:00:16.565Z,102130.06
2023-04-18T01:02:53.275Z,102117.38
2023-04-18T01:05:27.454Z,102128.09
2023-04-18T01:08:01.882Z,102122.56
2023-04-18T01:10:34.874Z,102122.22
2023-04-18T01:13:12.154Z,102107.38
2023-04-18T01:15:46.877Z,102137.41
2023-04-18T01:18:20.813Z,102132.47
2023-04-18T01:20:54.789Z,102128.81
2023-04-18T01:23:29.508Z,102128.25
2023-04-18T01:26:04.081Z,102127.72
2023-04-18T01:28:38.051Z,102115.53
2023-04-18T01:31:10.934Z,102118.31
2023-04-18T01:33:43.819Z,102104.53
2023-04-18T01:36:16.875Z,102114.72
2023-04-18T01:38:49.716Z,102093.81
2023-04-18T01:41:24.255Z,102080.78
2023-04-18T01:43:57.259Z,102126.00
2023-04-18T01:46:30.233Z,102117.44
2023-04-18T01:49:03.322Z,102127.72
2023-04-18T01:51:36.327Z,102119.25
2023-04-18T01:54:09.382Z,102118.69
2023-04-18T01:56:43.534Z,102112.44
2023-04-18T01:59:16.445Z,102115.78
2023-04-18T02:01:50.624Z,102115.41
2023-04-18T02:04:23.666Z,102115.31
2023-04-18T02:06:56.504Z,102111.97
2023-04-18T02:09:29.894Z,102104.28
2023-04-18T02:12:04.145Z,102096.41
2023-04-18T02:14:37.377Z,102111.91
2023-04-18T02:17:10.268Z,102109.34
2023-04-18T02:19:43.024Z,102115.97
2023-04-18T02:22:15.879Z,102107.50
2023-04-18T02:24:48.723Z,102106.91
2023-04-18T02:27:22.961Z,102106.47
2023-04-18T02:29:55.753Z,102109.91
2023-04-18T02:32:28.705Z,102106.38
2023-04-18T02:35:01.724Z,102101.56
2023-04-18T02:37:34.928Z,102105.63
2023-04-18T02:40:09.258Z,102107.50
2023-04-18T02:42:43.591Z,102104.84
2023-04-18T02:45:20.346Z,102094.34
2023-04-18T02:47:55.987Z,102110.47
2023-04-18T02:50:29.995Z,102075.63
2023-04-18T02:53:03.910Z,102105.91
2023-04-18T02:55:48.764Z,102110.19
2023-04-18T02:58:23.887Z,102108.75
2023-04-18T03:01:27.308Z,102111.56
2023-04-18T03:04:05.295Z,102104.41
2023-04-18T03:06:42.764Z,102115.81
2023-04-18T03:09:16.149Z,102118.75
2023-04-18T03:11:53.520Z,102119.88
2023-04-18T03:14:32.427Z,102109.38
2023-04-18T03:17:05.824Z,102111.25
2023-04-18T03:19:44.917Z,102111.16
2023-04-18T03:22:20.010Z,102082.38
2023-04-18T03:25:03.057Z,102075.13
2023-04-18T03:27:56.267Z,102069.41
2023-04-18T03:30:32.472Z,102115.16
2023-04-18T03:33:06.643Z,102081.25
2023-04-18T03:35:39.716Z,102107.44
2023-04-18T03:38:13.232Z,102103.59
2023-04-18T03:40:46.245Z,102105.94
2023-04-18T03:43:27.241Z,102107.44
2023-04-18T03:46:01.871Z,102091.31
2023-04-18T03:48:37.075Z,102112.84
2023-04-18T03:51:14.763Z,102071.69
2023-04-18T03:53:47.775Z,102104.88
2023-04-18T03:56:22.536Z,102114.38
2023-04-18T03:58:58.611Z,102107.91
2023-04-18T04:01:32.826Z,102116.88
2023-04-18T04:04:06.306Z,102103.69
2023-04-18T04:06:39.172Z,102115.97
2023-04-18T04:09:12.019Z,102122.00
2023-04-18T04:11:45.931Z,102122.59
2023-04-18T04:14:20.150Z,102119.56
2023-04-18T04:16:54.411Z,102102.34
2023-04-18T04:19:28.315Z,102129.72
2023-04-18T04:22:11.839Z,102112.53
2023-04-18T04:24:46.725Z,102114.25
2023-04-18T04:27:22.643Z,102118.69
2023-04-18T04:29:56.604Z,102118.69
2023-04-18T04:32:30.818Z,102112.97
2023-04-18T04:35:04.358Z,102136.63
2023-04-18T04:37:38.593Z,102127.06
2023-04-18T04:40:24.127Z,102127.91
2023-04-18T04:43:05.745Z,102129.25
2023-04-18T04:45:43.460Z,102136.78
2023-04-18T04:48:18.737Z,102147.72
2023-04-18T04:50:56.858Z,102139.38
2023-04-18T04:53:31.261Z,102143.84
2023-04-18T04:56:07.077Z,102113.06
2023-04-18T04:58:40.453Z,102146.78
2023-04-18T05:01:18.013Z,102144.69
2023-04-18T05:03:52.720Z,102159.00
2023-04-18T05:06:26.419Z,102155.16
2023-04-18T05:09:00.885Z,102159.63
2023-04-18T05:11:33.736Z,102166.97
2023-04-18T05:14:06.809Z,102127.91
2023-04-18T05:16:39.711Z,102157.91
2023-04-18T05:19:14.204Z,102156.97
2023-04-18T05:21:47.009Z,102160.00
2023-04-18T05:24:20.335Z,102150.69
2023-04-18T05:26:53.219Z,102146.16
2023-04-18T05:29:26.415Z,102160.78
2023-04-18T05:31:59.440Z,102162.91
2023-04-18T05:34:37.355Z,102155.34
2023-04-18T05:37:11.761Z,102154.69
2023-04-18T05:39:45.253Z,102171.50
2023-04-18T05:42:18.068Z,102170.44
2023-04-18T05:44:50.901Z,102173.16
2023-04-18T05:47:26.730Z,102179.19
2023-04-18T05:50:01.692Z,102179.19
2023-04-18T05:52:34.602Z,102180.91
2023-04-18T05:55:09.658Z,102176.13
2023-04-18T05:57:43.351Z,102164.16
2023-04-18T06:00:17.713Z,102191.25
2023-04-18T06:02:50.894Z,102175.19
2023-04-18T06:05:25.609Z,102186.22
2023-04-18T06:07:58.694Z,102189.56
2023-04-18T06:10:31.448Z,102186.59
2023-04-18T06:13:04.279Z,102196.56
2023-04-18T06:15:37.168Z,102199.84
2023-04-18T06:18:10.003Z,102201.31
2023-04-18T06:20:45.207Z,102185.59
2023-04-18T06:23:18.112Z,102214.38
2023-04-18T06:25:51.190Z,102211.72
2023-04-18T06:28:24.169Z,102195.00
2023-04-18T06:30:57.334Z,102215.50
2023-04-18T06:33:30.896Z,102191.56
2023-04-18T06:36:07.287Z,102218.00
2023-04-18T06:38:40.144Z,102214.06
2023-04-18T06:41:13.908Z,102214.63
2023-04-18T06:43:59.801Z,102209.03
2023-04-18T06:46:36.118Z,102218.84
2023-04-18T06:49:08.976Z,102217.03
2023-04-18T06:51:43.185Z,102209.22
2023-04-18T06:54:16.221Z,102211.56
2023-04-18T06:56:49.133Z,102219.19
2023-04-18T06:59:23.315Z,102192.59
2023-04-18T07:01:56.354Z,102221.44
2023-04-18T07:04:29.405Z,102197.53
2023-04-18T07:07:05.071Z,102234.03
2023-04-18T07:09:38.147Z,102222.22
2023-04-18T07:12:10.971Z,102222.22
2023-04-18T07:14:43.768Z,102225.88
2023-04-18T07:17:17.731Z,102237.34
2023-04-18T07:19:50.769Z,102239.53
2023-04-18T07:22:25.029Z,102245.25
2023-04-18T07:24:57.832Z,102237.41
2023-04-18T07:27:30.762Z,102239.28
2023-04-18T07:30:04.215Z,102237.00
2023-04-18T07:32:38.011Z,102241.00
2023-04-18T07:35:11.410Z,102217.97
2023-04-18T07:37:45.764Z,102220.72
2023-04-18T07:40:19.115Z,102244.34
2023-04-18T07:42:51.905Z,102253.19
2023-04-18T07:45:25.000Z,102240.91
2023-04-18T07:47:57.874Z,102213.59
2023-04-18T07:50:30.775Z,102238.09
2023-04-18T07:53:05.014Z,102241.31
2023-04-18T07:55:37.832Z,102242.22
2023-04-18T07:58:11.050Z,102248.75
2023-04-18T08:00:44.743Z,102257.91
2023-04-18T08:03:17.772Z,102242.59
2023-04-18T08:05:51.626Z,102256.63
2023-04-18T08:08:25.846Z,102254.03
2023-04-18T08:10:58.645Z,102242.75
2023-04-18T08:13:31.506Z,102264.84
2023-04-18T08:16:04.440Z,102254.63
2023-04-18T08:18:37.349Z,102245.31
2023-04-18T08:21:10.285Z,102205.94
2023-04-18T08:23:44.438Z,102266.06
2023-04-18T08:26:17.364Z,102257.66
2023-04-18T08:28:50.423Z,102254.66
2023-04-18T08:31:23.418Z,102250.69
2023-04-18T08:33:56.392Z,102258.06
2023-04-18T08:36:29.186Z,102262.63
2023-04-18T08:39:03.456Z,102258.88
2023-04-18T08:41:38.048Z,102267.13
2023-04-18T08:44:10.890Z,102263.72
2023-04-18T08:46:44.006Z,102265.53
2023-04-18T08:49:17.581Z,102267.31
2023-04-18T08:51:52.866Z,102253.38
2023-04-18T08:54:30.560Z,102266.44
2023-04-18T08:57:07.376Z,102274.06
2023-04-18T08:59:43.160Z,102259.78
2023-04-18T09:02:17.802Z,102267.34
2023-04-18T09:04:53.313Z,102258.19
2023-04-18T09:07:29.594Z,102259.88
2023-04-18T09:10:04.103Z,102268.63
2023-04-18T09:12:49.957Z,102263.84
2023-04-18T09:15:26.721Z,102272.47
2023-04-18T09:18:02.680Z,102263.50
2023-04-18T09:20:37.747Z,102275.31
2023-04-18T09:23:14.423Z,102261.03
2023-04-18T09:25:52.045Z,102269.28
2023-04-18T09:28:27.879Z,102269.75
2023-04-18T09:31:09.085Z,102271.00
2023-04-18T09:33:46.908Z,102256.75
2023-04-18T09:36:21.292Z,102254.66
2023-04-18T09:38:57.043Z,102270.47
2023-04-18T09:41:32.630Z,102268.38
2023-04-18T09:44:14.955Z,102269.78
2023-04-18T09:46:49.279Z,102267.09
2023-04-18T09:49:23.661Z,102258.88
2023-04-18T09:51:57.217Z,102258.78
2023-04-18T09:54:33.768Z,102248.47
2023-04-18T09:57:11.988Z,102249.69
2023-04-18T09:59:50.192Z,102254.13
2023-04-18T10:02:24.376Z,102259.72
2023-04-18T10:05:00.678Z,102260.44
2023-04-18T10:07:33.981Z,102261.69
2023-04-18T10:10:08.281Z,102266.41
2023-04-18T10:12:43.057Z,102255.59
2023-04-18T10:15:16.862Z,102268.13
2023-04-18T10:18:04.375Z,102248.75
2023-04-18T10:20:41.985Z,102264.97
2023-04-18T10:23:35.764Z,102263.00
2023-04-18T10:26:09.353Z,102252.31
2023-04-18T10:28:54.241Z,102255.00
2023-04-18T10:31:28.881Z,102261.88
2023-04-18T10:34:05.589Z,102251.56
2023-04-18T10:37:05.124Z,102256.00
2023-04-18T10:40:00.081Z,102252.88
2023-04-18T10:43:00.288Z,102255.44
2023-04-18T10:45:36.507Z,102252.44
2023-04-18T10:48:26.017Z,102253.41
2023-04-18T10:51:19.198Z,102259.34
2023-04-18T10:53:55.057Z,102255.69
2023-04-18T10:56:29.169Z,102242.84
2023-04-18T10:59:04.165Z,102233.41
2023-04-18T11:01:41.503Z,102239.56
2023-04-18T11:04:15.546Z,102246.16
2023-04-18T11:06:50.289Z,102256.06
2023-04-18T11:09:23.393Z,102251.78
2023-04-18T11:12:07.375Z,102240.50
2023-04-18T11:14:41.315Z,102235.59
2023-04-18T11:17:23.552Z,102233.84
2023-04-18T11:20:06.917Z,102207.00
2023-04-18T11:22:48.101Z,102227.41
2023-04-18T11:25:25.070Z,102216.47
2023-04-18T11:28:00.347Z,102223.06
2023-04-18T11:30:38.221Z,102214.88
2023-04-18T11:33:13.796Z,102212.75
2023-04-18T11:35:47.367Z,102214.94
2023-04-18T11:38:21.695Z,102219.25
2023-04-18T11:40:56.119Z,102211.13
2023-04-18T11:43:29.026Z,102221.72
2023-04-18T11:46:02.069Z,102225.81
2023-04-18T11:48:36.990Z,102223.66
2023-04-18T11:51:33.963Z,102224.84
2023-04-18T11:54:06.873Z,102228.50
2023-04-18T11:56:49.996Z,102213.06
2023-04-18T11:59:23.654Z,102225.56
2023-04-18T12:02:14.867Z,102218.56
2023-04-18T12:04:56.015Z,102225.69
2023-04-18T12:07:37.311Z,102232.16
2023-04-18T12:10:24.373Z,102232.00
2023-04-18T12:12:59.634Z,102219.47
2023-04-18T12:15:33.572Z,102217.28
2023-04-18T12:18:08.333Z,102235.28
2023-04-18T12:20:46.235Z,102214.97
2023-04-18T12:23:33.712Z,102217.84
2023-04-18T12:26:08.187Z,102232.63
2023-04-18T12:28:45.196Z,102223.53
2023-04-18T12:31:18.161Z,102215.94
2023-04-18T12:33:51.310Z,102232.22
2023-04-18T12:36:26.428Z,102216.19
2023-04-18T12:39:02.739Z,102205.28
2023-04-18T12:41:35.615Z,102230.28
2023-04-18T12:44:12.077Z,102224.50
2023-04-18T12:46:45.205Z,102217.81
2023-04-18T12:49:18.081Z,102200.81
2023-04-18T12:51:52.249Z,102213.59
2023-04-18T12:54:25.600Z,102201.03
2023-04-18T12:56:58.629Z,102215.59
2023-04-18T12:59:31.490Z,102199.84
2023-04-18T13:02:05.108Z,102201.22
2023-04-18T13:04:38.265Z,102207.19
2023-04-18T13:07:12.996Z,102194.19
2023-04-18T13:09:47.148Z,102205.56
2023-04-18T13:12:20.057Z,102201.31
2023-04-18T13:14:52.957Z,102173.16
2023-04-18T13:17:25.881Z,102182.22
2023-04-18T13:19:58.903Z,102192.31
2023-04-18T13:22:33.749Z,102194.28
2023-04-18T13:25:10.345Z,102189.72
2023-04-18T13:27:43.156Z,102195.25
2023-04-18T13:30:16.074Z,102198.38
2023-04-18T13:32:49.057Z,102186.56
2023-04-18T13:35:22.067Z,102182.22
2023-04-18T13:37:58.441Z,102163.84
2023-04-18T13:40:33.365Z,102189.44
2023-04-18T13:43:06.183Z,102188.88
2023-04-18T13:45:38.964Z,102188.06
2023-04-18T13:48:12.864Z,102164.03
2023-04-18T13:50:46.668Z,102181.47
2023-04-18T13:53:21.421Z,102171.06
2023-04-18T13:55:54.366Z,102179.75
2023-04-18T13:58:27.259Z,102179.25
2023-04-18T14:01:03.130Z,102127.50
2023-04-18T14:03:38.385Z,102168.06
2023-04-18T14:06:12.277Z,102173.59
2023-04-18T14:08:46.537Z,102170.69
2023-04-18T14:11:19.643Z,102161.03
2023-04-18T14:13:52.417Z,102163.97
2023-04-18T14:16:25.510Z,102175.34
2023-04-18T14:18:58.423Z,102176.59
2023-04-18T14:21:31.545Z,102167.94
2023-04-18T14:24:06.728Z,102156.59
2023-04-18T14:26:39.565Z,102172.53
2023-04-18T14:29:14.146Z,102153.97
2023-04-18T14:31:47.393Z,102158.31
2023-04-18T14:34:20.382Z,102160.00
2023-04-18T14:36:53.184Z,102165.06
2023-04-18T14:39:27.411Z,102166.41
2023-04-18T14:42:01.322Z,102160.88
2023-04-18T14:44:34.534Z,102156.56
2023-04-18T14:47:07.489Z,102157.56
2023-04-18T14:49:40.359Z,102147.38
2023-04-18T14:52:14.094Z,102158.69
2023-04-18T14:54:48.285Z,102153.69
2023-04-18T14:57:21.101Z,102150.75
2023-04-18T14:59:54.722Z,102146.38
2023-04-18T15:02:27.793Z,102149.91
2023-04-18T15:05:00.870Z,102148.16
2023-04-18T15:07:33.831Z,102145.69
2023-04-18T15:10:12.469Z,102145.56
2023-04-18T15:12:46.672Z,102159.03
2023-04-18T15:15:20.709Z,102135.09
2023-04-18T15:17:53.785Z,102135.34
2023-04-18T15:20:26.823Z,102149.50
2023-04-18T15:22:59.796Z,102149.41
2023-04-18T15:25:35.006Z,102147.03
2023-04-18T15:28:08.090Z,102140.63
2023-04-18T15:30:41.079Z,102141.66
2023-04-18T15:33:14.289Z,102145.66
2023-04-18T15:35:48.119Z,102130.38
2023-04-18T15:38:21.398Z,102136.13
2023-04-18T15:40:55.596Z,102138.81
2023-04-18T15:43:28.617Z,102131.22
2023-04-18T15:46:01.466Z,102133.69
2023-04-18T15:48:36.227Z,102135.44
2023-04-18T15:51:09.069Z,102127.31
2023-04-18T15:53:41.917Z,102133.66
2023-04-18T15:56:16.269Z,102137.63
2023-04-18T15:58:49.088Z,102134.13
2023-04-18T16:01:22.798Z,102110.69
2023-04-18T16:03:55.711Z,102130.00
2023-04-18T16:06:31.153Z,102122.66
2023-04-18T16:09:06.519Z,102116.97
2023-04-18T16:11:40.820Z,102129.91
2023-04-18T16:14:13.862Z,102128.44
2023-04-18T16:16:46.934Z,102127.13
2023-04-18T16:19:20.396Z,102114.59
2023-04-18T16:21:53.426Z,102118.94
2023-04-18T16:24:26.415Z,102125.69
2023-04-18T16:27:00.737Z,102099.53
2023-04-18T16:29:33.373Z,102126.94
2023-04-18T16:32:08.005Z,102122.72
2023-04-18T16:34:40.820Z,102126.88
2023-04-18T16:37:13.719Z,102125.66
2023-04-18T16:39:46.714Z,102120.91
2023-04-18T16:42:21.054Z,102110.81
2023-04-18T16:44:56.851Z,102121.56
2023-04-18T16:47:30.266Z,102112.78
2023-04-18T16:50:03.173Z,102103.19
2023-04-18T16:52:36.148Z,102110.53
2023-04-18T16:55:09.801Z,102119.03
2023-04-18T16:57:44.448Z,102100.00
2023-04-18T17:00:18.297Z,102113.53
2023-04-18T17:02:51.237Z,102103.31
2023-04-18T17:05:25.912Z,102112.25
2023-04-18T17:07:59.201Z,102115.06
2023-04-18T17:10:32.454Z,102106.09
2023-04-18T17:13:07.033Z,102094.31
2023-04-18T17:15:40.005Z,102108.38
2023-04-18T17:18:13.100Z,102113.53
2023-04-18T17:20:46.030Z,102116.44
2023-04-18T17:23:19.001Z,102125.28
2023-04-18T17:25:51.882Z,102133.50
2023-04-18T17:28:26.067Z,102122.78
2023-04-18T17:30:58.865Z,102124.31
2023-04-18T17:33:31.786Z,102122.50
2023-04-18T17:36:08.352Z,102108.75
2023-04-18T17:38:41.305Z,102114.34
2023-04-18T17:41:14.139Z,102125.69
2023-04-18T17:43:50.588Z,102138.75
2023-04-18T17:46:23.497Z,102144.63
2023-04-18T17:48:58.914Z,102122.94
2023-04-18T17:51:32.140Z,102148.34
2023-04-18T17:54:05.506Z,102139.09
2023-04-18T17:56:38.371Z,102157.78
2023-04-18T17:59:13.613Z,102150.53
2023-04-18T18:01:47.144Z,102149.22
2023-04-18T18:04:23.556Z,102161.84
2023-04-18T18:06:58.817Z,102163.19
2023-04-18T18:09:31.968Z,102172.19
2023-04-18T18:12:05.888Z,102164.94
2023-04-18T18:14:41.181Z,102146.31
2023-04-18T18:17:14.033Z,102175.31
2023-04-18T18:19:47.276Z,102168.69
2023-04-18T18:22:21.344Z,102170.25
2023-04-18T18:24:54.292Z,102177.28
2023-04-18T18:27:27.212Z,102175.47
2023-04-18T18:30:01.485Z,102173.22
2023-04-18T18:32:34.520Z,102183.25
2023-04-18T18:35:07.915Z,102183.47
2023-04-18T18:37:40.983Z,102180.91
2023-04-18T18:40:14.026Z,102176.56
2023-04-18T18:42:49.262Z,102186.41
2023-04-18T18:45:23.732Z,102180.00
2023-04-18T18:47:56.715Z,102187.03
2023-04-18T18:50:29.562Z,102192.84
2023-04-18T18:53:02.642Z,102197.16
2023-04-18T18:55:35.466Z,102197.41
2023-04-18T18:58:08.317Z,102184.00
2023-04-18T19:00:42.505Z,102194.72
2023-04-18T19:03:16.808Z,102203.78
2023-04-18T19:05:49.849Z,102213.38
2023-04-18T19:08:22.825Z,102208.94
2023-04-18T19:10:55.841Z,102213.13
2023-04-18T19:13:28.963Z,102208.13
2023-04-18T19:16:03.276Z,102210.81
2023-04-18T19:18:36.680Z,102212.38
2023-04-18T19:21:09.579Z,102218.38
2023-04-18T19:23:43.031Z,102223.91
2023-04-18T19:26:15.910Z,102215.84
2023-04-18T19:28:48.817Z,102209.50
2023-04-18T19:31:23.518Z,102220.56
2023-04-18T19:33:56.375Z,102221.44
2023-04-18T19:36:29.185Z,102209.41
2023-04-18T19:39:01.974Z,102232.78
2023-04-18T19:41:34.765Z,102235.56
2023-04-18T19:44:07.539Z,102232.09
2023-04-18T19:46:41.746Z,102237.00
2023-04-18T19:49:14.870Z,102248.81
2023-04-18T19:51:48.820Z,102249.53
2023-04-18T19:54:22.087Z,102246.66
2023-04-18T19:56:55.230Z,102245.03
2023-04-18T19:59:28.202Z,102220.78
2023-04-18T20:02:05.207Z,102252.91
2023-04-18T20:04:40.500Z,102256.34
2023-04-18T20:07:13.505Z,102250.63
2023-04-18T20:09:46.354Z,102250.78
2023-04-18T20:12:19.265Z,102253.19
2023-04-18T20:14:52.449Z,102248.09
2023-04-18T20:17:27.556Z,102236.88
2023-04-18T20:20:00.663Z,102252.16
2023-04-18T20:22:33.469Z,102254.25
2023-04-18T20:25:06.893Z,102253.66
2023-04-18T20:36:20.994Z,102207.03
2023-04-18T20:38:53.630Z,102256.94
2023-04-18T20:41:26.910Z,102251.41
2023-04-18T20:43:59.805Z,102258.75
2023-04-18T20:46:33.453Z,102249.97
2023-04-18T20:49:07.730Z,102249.88
2023-04-18T20:51:42.201Z,102257.94
2023-04-18T20:54:15.379Z,102257.16
2023-04-18T20:56:48.368Z,102260.59
2023-04-18T20:59:21.333Z,102265.66
2023-04-18T21:01:54.503Z,102263.66
2023-04-18T21:04:27.909Z,102255.81
2023-04-18T21:07:02.221Z,102259.25
2023-04-18T21:09:36.527Z,102250.84
2023-04-18T21:12:09.464Z,102251.78
2023-04-18T21:14:42.549Z,102262.94
2023-04-18T21:17:17.337Z,102268.66
2023-04-18T21:19:50.736Z,102256.19
2023-04-18T21:22:24.869Z,102265.69
2023-04-18T21:24:57.898Z,102270.97
2023-04-18T21:27:31.186Z,102267.63
2023-04-18T21:30:05.236Z,102263.81
2023-04-18T21:32:38.150Z,102269.47
2023-04-18T21:35:11.460Z,102260.88
2023-04-18T21:37:45.666Z,102264.59
2023-04-18T21:40:19.151Z,102266.72
2023-04-18T21:42:52.020Z,102270.03
2023-04-18T21:45:25.805Z,102217.25
2023-04-18T21:47:58.632Z,102241.56
2023-04-18T21:50:31.443Z,102265.16
2023-04-18T21:53:05.796Z,102265.91
2023-04-18T21:55:38.623Z,102259.44
2023-04-18T21:58:11.411Z,102268.06
2023-04-18T22:00:44.244Z,102269.59
2023-04-18T22:03:17.366Z,102224.81
2023-04-18T22:05:52.143Z,102239.00
2023-04-18T22:08:26.611Z,102259.81
2023-04-18T22:11:00.188Z,102253.81
2023-04-18T22:13:33.741Z,102249.53
2023-04-18T22:16:08.091Z,102261.75
2023-04-18T22:18:41.042Z,102253.22
2023-04-18T22:21:13.831Z,102229.66
2023-04-18T22:23:55.288Z,102260.59
2023-04-18T22:26:28.121Z,102255.75
2023-04-18T22:29:01.228Z,102261.94
2023-04-18T22:31:34.122Z,102260.41
2023-04-18T22:34:06.984Z,102263.06
2023-04-18T22:36:39.831Z,102264.31
2023-04-18T22:39:14.066Z,102258.91
2023-04-18T22:41:46.860Z,102263.19
2023-04-18T22:44:19.854Z,102255.44
2023-04-18T22:46:54.437Z,102260.13
2023-04-18T22:49:27.494Z,102260.41
2023-04-18T22:52:01.318Z,102258.28
2023-04-18T22:54:39.286Z,102264.22
2023-04-18T22:57:12.135Z,102268.00
2023-04-18T22:59:44.895Z,102261.81
2023-04-18T23:02:17.792Z,102265.34
2023-04-18T23:04:50.910Z,102261.69
2023-04-18T23:07:23.815Z,102264.75
2023-04-18T23:09:58.040Z,102259.59
2023-04-18T23:12:30.835Z,102259.81
2023-04-18T23:15:03.616Z,102260.25
2023-04-18T23:17:37.485Z,102257.03
2023-04-18T23:20:12.310Z,102257.88
2023-04-18T23:22:46.478Z,102265.53
2023-04-18T23:25:20.980Z,102267.03
2023-04-18T23:27:53.791Z,102254.84
2023-04-18T23:30:27.080Z,102264.16
2023-04-18T23:32:59.935Z,102262.25
2023-04-18T23:35:32.824Z,102257.28
2023-04-18T23:38:05.801Z,102257.25
2023-04-18T23:40:39.978Z,102260.94
2023-04-18T23:43:13.031Z,102255.59
2023-04-18T23:45:45.852Z,102254.03
2023-04-18T23:48:18.758Z,102250.97
2023-04-18T23:50:52.793Z,102254.84
2023-04-18T23:53:25.766Z,102223.13
2023-04-18T23:55:59.954Z,102252.53
2023-04-18T23:58:32.877Z,102235.16
